BIVM

Vestmannaeyjar Airport

Vestmannaeyjar, Iceland

BIVM 231123Z 11016KT CAVOK 13/09 Q1015

Observed Flight Rules
Aug-23 @ 11:23 UTC (26 minutes ago)
 
Visual Flight Rules
Wind Visibility Clouds
110° at 16 knots 10,000+ meters
  • Clear skies
Temperatures Readings
Current 13°C / 55°F
Dewpoint 9°C / 48°F
Humidity 77%
Altimeter 29.97" Hg
Pressure 1015 hPa
Elevation 124
Observed Flight Rules
Aug-23 @ 11:23 UTC
(26 minutes ago)
 
VFR
Wind Visibility
110° at 16 knots 10,000+ meters
Clouds
  • Clear skies
Temperature Dewpoint
13°C / 55°F 9°C / 48°F
Humidity Altimeter Pressure
77% 29.97" Hg 1015 hPa